| time (UTC) | temp C | wind direction | speed KPH | gust KPH | rain 1hr cm | rain 24hr cm | rain mn cm | humidity % | barometer mb |
| 20260509052544 | 13 | 75 | 3.2 | 8.0 | 0.00 | 0.00 | 0.00 | 59 | 1022.6 |
| 20260509051515 | 13 | 86 | 3.2 | 11.3 | 0.00 | 0.00 | 0.00 | 59 | 1022.6 |
| 20260509050517 | 13 | 103 | 3.2 | 9.7 | 0.00 | 0.00 | 0.00 | 59 | 1022.5 |
| 20260509045538 | 13 | 90 | 4.8 | 9.7 | 0.00 | 0.00 | 0.00 | 59 | 1022.6 |
| 20260509044519 | 13 | 105 | 4.8 | 11.3 | 0.00 | 0.00 | 0.00 | 58 | 1022.5 |
| 20260509043540 | 13 | 95 | 4.8 | 14.5 | 0.00 | 0.00 | 0.00 | 58 | 1022.5 |
| 20260509042521 | 13 | 87 | 1.6 | 4.8 | 0.00 | 0.00 | 0.00 | 59 | 1022.3 |
| 20260509041522 | 13 | 104 | 4.8 | 14.5 | 0.00 | 0.00 | 0.00 | 58 | 1022.2 |
| 20260509040523 | 13 | 100 | 1.6 | 4.8 | 0.00 | 0.00 | 0.00 | 57 | 1022.1 |
| 20260509035524 | 14 | 102 | 1.6 | 6.4 | 0.00 | 0.00 | 0.00 | 57 | 1022.1 |
| 20260509034535 | 14 | 112 | 3.2 | 12.9 | 0.00 | 0.00 | 0.00 | 57 | 1022.0 |
| 20260509033516 | 14 | 111 | 4.8 | 9.7 | 0.00 | 0.00 | 0.00 | 58 | 1021.9 |
| 20260509032537 | 14 | 86 | 1.6 | 8.0 | 0.00 | 0.00 | 0.00 | 58 | 1021.8 |
| 20260509031519 | 14 | 95 | 3.2 | 9.7 | 0.00 | 0.00 | 0.00 | 57 | 1021.7 |
| 20260509030520 | 14 | 103 | 3.2 | 9.7 | 0.00 | 0.00 | 0.00 | 57 | 1021.6 |
| 20260509025522 | 15 | 109 | 3.2 | 9.7 | 0.00 | 0.00 | 0.00 | 57 | 1021.6 |
| 20260509024522 | 15 | 93 | 3.2 | 9.7 | 0.00 | 0.00 | 0.00 | 56 | 1021.5 |
| 20260509023523 | 15 | 90 | 3.2 | 8.0 | 0.00 | 0.00 | 0.00 | 55 | 1021.5 |
| 20260509022524 | 15 | 104 | 4.8 | 9.7 | 0.00 | 0.00 | 0.00 | 55 | 1021.5 |
| 20260509021515 | 15 | 313 | 3.2 | 8.0 | 0.00 | 0.00 | 0.00 | 54 | 1021.5 |
| 20260509020517 | 15 | 129 | 3.2 | 8.0 | 0.00 | 0.00 | 0.00 | 54 | 1021.5 |
| 20260509015517 | 15 | 103 | 3.2 | 11.3 | 0.00 | 0.00 | 0.00 | 53 | 1021.4 |
| 20260509014518 | 15 | 91 | 1.6 | 14.5 | 0.00 | 0.00 | 0.00 | 54 | 1021.5 |
| 20260509013520 | 15 | 101 | 6.4 | 14.5 | 0.00 | 0.00 | 0.00 | 54 | 1021.4 |
| 20260509012540 | 15 | 63 | 3.2 | 8.0 | 0.00 | 0.00 | 0.00 | 52 | 1021.2 |
| 20260509011521 | 16 | 326 | 3.2 | 4.8 | 0.00 | 0.00 | 0.00 | 51 | 1021.2 |
| 20260509011018 | 16 | 93 | 4.8 | 9.7 | 0.00 | 0.00 | 0.00 | 51 | 1021.2 |
| 20260509010039 | 16 | 100 | 3.2 | 8.0 | 0.00 | 0.00 | 0.00 | 49 | 1021.1 |
| 20260509005021 | 16 | 224 | 3.2 | 8.0 | 0.00 | 0.00 | 0.00 | 49 | 1021.1 |
| 20260509004022 | 16 | 95 | 8.0 | 16.1 | 0.00 | 0.00 | 0.00 | 48 | 1021.1 |
| 20260509003023 | 16 | 107 | 6.4 | 14.5 | 0.00 | 0.00 | 0.00 | 48 | 1021.0 |
| 20260509002023 | 16 | 72 | 3.2 | 11.3 | 0.00 | 0.00 | 0.00 | 49 | 1021.0 |
| 20260509001024 | 16 | 94 | 4.8 | 11.3 | 0.00 | 0.00 | 0.00 | 49 | 1021.2 |
| 20260509000015 | 16 | 46 | 3.2 | 8.0 | 0.00 | 0.00 | 0.00 | 50 | 1021.2 |
| 20260508235016 | 16 | 283 | 4.8 | 8.0 | 0.00 | 0.00 | 0.00 | 49 | 1021.2 |
| 20260508234017 | 16 | 94 | 8.0 | 16.1 | 0.00 | 0.00 | 0.00 | 50 | 1021.1 |
| 20260508233018 | 16 | 92 | 6.4 | 16.1 | 0.00 | 0.00 | 0.00 | 51 | 1021.0 |
| 20260508232018 | 16 | 91 | 3.2 | 9.7 | 0.00 | 0.00 | 0.00 | 50 | 1021.0 |
| 20260508231020 | 16 | 100 | 4.8 | 17.7 | 0.00 | 0.00 | 0.00 | 53 | 1021.0 |
| 20260508230021 | 15 | 102 | 8.0 | 17.7 | 0.00 | 0.00 | 0.00 | 52 | 1021.2 |
| 20260508225022 | 16 | 85 | 4.8 | 11.3 | 0.00 | 0.00 | 0.00 | 52 | 1021.0 |
| 20260508224023 | 16 | 105 | 3.2 | 8.0 | 0.00 | 0.00 | 0.00 | 51 | 1020.8 |
| 20260508223024 | 16 | 90 | 4.8 | 11.3 | 0.00 | 0.00 | 0.00 | 52 | 1020.7 |
| 20260508222025 | 16 | 97 | 6.4 | 14.5 | 0.00 | 0.00 | 0.00 | 51 | 1020.8 |
| 20260508221016 | 16 | 95 | 6.4 | 16.1 | 0.00 | 0.00 | 0.00 | 52 | 1020.8 |
| 20260508220017 | 16 | 82 | 3.2 | 11.3 | 0.00 | 0.00 | 0.00 | 51 | 1020.6 |
| 20260508214016 | 16 | 106 | 3.2 | 8.0 | 0.00 | 0.00 | 0.00 | 52 | 1020.4 |
| 20260508213016 | 16 | 90 | 4.8 | 11.3 | 0.00 | 0.00 | 0.00 | 53 | 1020.6 |
| 20260508212017 | 15 | 275 | 3.2 | 9.7 | 0.00 | 0.00 | 0.00 | 54 | 1020.7 |
| 20260508211019 | 15 | 98 | 6.4 | 17.7 | 0.00 | 0.00 | 0.00 | 55 | 1020.6 |
| 20260508210020 | 15 | 102 | 8.0 | 17.7 | 0.00 | 0.00 | 0.00 | 56 | 1020.4 |
| 20260508205020 | 15 | 105 | 6.4 | 17.7 | 0.00 | 0.00 | 0.00 | 58 | 1020.4 |
| 20260508204021 | 14 | 101 | 6.4 | 16.1 | 0.00 | 0.00 | 0.00 | 59 | 1020.4 |
| 20260508203042 | 15 | 109 | 6.4 | 17.7 | 0.00 | 0.00 | 0.00 | 59 | 1020.3 |
| 20260508202023 | 15 | 94 | 6.4 | 17.7 | 0.00 | 0.00 | 0.00 | 59 | 1020.1 |
| 20260508201024 | 14 | 113 | 3.2 | 19.3 | 0.00 | 0.00 | 0.00 | 60 | 1020.0 |
| 20260508200025 | 14 | 101 | 8.0 | 16.1 | 0.00 | 0.00 | 0.00 | 60 | 1020.0 |
| 20260508195016 | 15 | 110 | 4.8 | 12.9 | 0.00 | 0.00 | 0.00 | 60 | 1019.9 |
| 20260508194037 | 15 | 107 | 8.0 | 17.7 | 0.00 | 0.00 | 0.00 | 60 | 1019.8 |
| 20260508193018 | 15 | 103 | 6.4 | 20.9 | 0.00 | 0.00 | 0.00 | 61 | 1019.6 |
| 20260508192019 | 14 | 99 | 3.2 | 12.9 | 0.00 | 0.00 | 0.00 | 61 | 1019.5 |
| 20260508191020 | 14 | 100 | 4.8 | 9.7 | 0.00 | 0.00 | 0.00 | 64 | 1019.5 |
| 20260508190021 | 13 | 80 | 4.8 | 11.3 | 0.00 | 0.00 | 0.00 | 68 | 1019.2 |
| 20260508185022 | 14 | 97 | 4.8 | 14.5 | 0.00 | 0.00 | 0.00 | 67 | 1019.3 |
| 20260508184022 | 14 | 105 | 4.8 | 14.5 | 0.00 | 0.00 | 0.00 | 65 | 1019.1 |
| 20260508183023 | 14 | 110 | 4.8 | 12.9 | 0.00 | 0.00 | 0.00 | 67 | 1018.9 |
| 20260508182024 | 14 | 98 | 4.8 | 16.1 | 0.00 | 0.00 | 0.00 | 67 | 1019.0 |
| 20260508181025 | 13 | 105 | 4.8 | 14.5 | 0.00 | 0.00 | 0.00 | 68 | 1018.9 |
| 20260508180056 | 13 | 106 | 4.8 | 17.7 | 0.00 | 0.00 | 0.00 | 68 | 1018.7 |
| 20260508175017 | 13 | 107 | 4.8 | 19.3 | 0.00 | 0.00 | 0.00 | 68 | 1018.7 |
| 20260508174018 | 14 | 96 | 4.8 | 11.3 | 0.00 | 0.00 | 0.00 | 67 | 1018.5 |
| 20260508173020 | 15 | 105 | 6.4 | 14.5 | 0.00 | 0.00 | 0.00 | 67 | 1018.4 |
| 20260508172020 | 15 | 115 | 4.8 | 9.7 | 0.00 | 0.00 | 0.00 | 66 | 1018.5 |
| 20260508171021 | 15 | 107 | 3.2 | 6.4 | 0.00 | 0.00 | 0.00 | 65 | 1018.3 |
| 20260508170042 | 15 | 103 | 4.8 | 16.1 | 0.00 | 0.00 | 0.00 | 64 | 1018.1 |
| 20260508165023 | 15 | 100 | 6.4 | 16.1 | 0.00 | 0.00 | 0.00 | 65 | 1017.9 |
| 20260508164024 | 15 | 115 | 4.8 | 14.5 | 0.00 | 0.00 | 0.00 | 65 | 1017.9 |
| 20260508163025 | 14 | 92 | 4.8 | 14.5 | 0.00 | 0.00 | 0.00 | 66 | 1017.8 |
| 20260508162015 | 14 | 106 | 4.8 | 14.5 | 0.00 | 0.00 | 0.00 | 66 | 1017.9 |
| 20260508161017 | 14 | 92 | 4.8 | 11.3 | 0.00 | 0.00 | 0.00 | 66 | 1017.7 |
| 20260508160017 | 14 | 95 | 4.8 | 9.7 | 0.00 | 0.00 | 0.00 | 66 | 1017.6 |
| 20260508155018 | 14 | 112 | 3.2 | 6.4 | 0.00 | 0.00 | 0.00 | 68 | 1017.5 |
| 20260508154039 | 13 | 84 | 3.2 | 8.0 | 0.00 | 0.00 | 0.00 | 69 | 1017.4 |
| 20260508153020 | 13 | 88 | 3.2 | 9.7 | 0.00 | 0.00 | 0.00 | 69 | 1017.7 |
| 20260508152042 | 13 | 96 | 1.6 | 6.4 | 0.00 | 0.00 | 0.00 | 69 | 1017.7 |
| 20260508151022 | 13 | 110 | 3.2 | 6.4 | 0.00 | 0.00 | 0.00 | 68 | 1017.5 |
| 20260508150023 | 13 | 99 | 3.2 | 9.7 | 0.00 | 0.00 | 0.00 | 69 | 1017.4 |
| 20260508145024 | 13 | 95 | 1.6 | 8.0 | 0.00 | 0.00 | 0.00 | 69 | 1017.5 |
| 20260508144024 | 13 | 103 | 1.6 | 6.4 | 0.00 | 0.00 | 0.00 | 70 | 1017.2 |
| 20260508143016 | 13 | 92 | 3.2 | 8.0 | 0.00 | 0.00 | 0.00 | 69 | 1017.0 |
| 20260508142017 | 13 | 111 | 4.8 | 12.9 | 0.00 | 0.00 | 0.00 | 69 | 1016.9 |
| 20260508141017 | 13 | 86 | 1.6 | 4.8 | 0.00 | 0.00 | 0.00 | 70 | 1016.9 |
| 20260508140059 | 13 | 103 | 3.2 | 6.4 | 0.00 | 0.00 | 0.00 | 69 | 1016.8 |
| 20260508135019 | 13 | 96 | 0.0 | 11.3 | 0.00 | 0.00 | 0.00 | 69 | 1016.8 |
| 20260508134020 | 13 | 102 | 3.2 | 11.3 | 0.00 | 0.00 | 0.00 | 68 | 1016.9 |
| 20260508133022 | 13 | 104 | 3.2 | 9.7 | 0.00 | 0.00 | 0.00 | 68 | 1016.7 |
| 20260508132023 | 13 | 104 | 1.6 | 4.8 | 0.00 | 0.00 | 0.00 | 68 | 1016.5 |
| 20260508131044 | 14 | 106 | 4.8 | 11.3 | 0.00 | 0.00 | 0.00 | 68 | 1016.6 |
| 20260508130024 | 13 | 118 | 0.0 | 4.8 | 0.00 | 0.00 | 0.00 | 70 | 1016.5 |
| 20260508125015 | 13 | 276 | 0.0 | 3.2 | 0.00 | 0.00 | 0.00 | 70 | 1016.5 |
| 20260508124037 | 13 | 100 | 1.6 | 6.4 | 0.00 | 0.00 | 0.00 | 70 | 1016.4 |
| 20260508123018 | 13 | 50 | 1.6 | 4.8 | 0.00 | 0.00 | 0.00 | 70 | 1016.2 |
| 20260508122019 | 14 | 103 | 1.6 | 6.4 | 0.00 | 0.00 | 0.00 | 69 | 1016.4 |
| 20260508121021 | 14 | 105 | 1.6 | 6.4 | 0.00 | 0.00 | 0.00 | 70 | 1016.4 |
| 20260508120022 | 14 | 94 | 0.0 | 4.8 | 0.00 | 0.00 | 0.00 | 69 | 1016.2 |
| 20260508115023 | 14 | 84 | 1.6 | 4.8 | 0.00 | 0.00 | 0.00 | 69 | 1016.2 |
| 20260508114023 | 14 | 93 | 1.6 | 6.4 | 0.00 | 0.00 | 0.00 | 68 | 1016.1 |
| 20260508113025 | 14 | 116 | 1.6 | 4.8 | 0.00 | 0.00 | 0.00 | 68 | 1016.2 |
| 20260508112016 | 14 | 49 | 0.0 | 4.8 | 0.00 | 0.00 | 0.00 | 67 | 1016.0 |
| 20260508111038 | 14 | 79 | 0.0 | 3.2 | 0.00 | 0.00 | 0.00 | 67 | 1016.0 |
| 20260508110039 | 14 | 71 | 1.6 | 6.4 | 0.00 | 0.00 | 0.00 | 66 | 1016.0 |
| 20260508105020 | 14 | 74 | 1.6 | 4.8 | 0.00 | 0.00 | 0.00 | 66 | 1016.0 |
| 20260508104041 | 14 | 107 | 3.2 | 8.0 | 0.00 | 0.00 | 0.00 | 66 | 1016.1 |
| 20260508103022 | 14 | 101 | 1.6 | 6.4 | 0.00 | 0.00 | 0.00 | 66 | 1016.0 |
| 20260508102023 | 14 | 84 | 1.6 | 6.4 | 0.00 | 0.00 | 0.00 | 66 | 1016.0 |
| 20260508101024 | 14 | 57 | 1.6 | 4.8 | 0.00 | 0.00 | 0.00 | 66 | 1016.2 |
| 20260508100015 | 14 | 188 | 0.0 | 3.2 | 0.00 | 0.00 | 0.00 | 66 | 1016.0 |
| 20260508095016 | 14 | 284 | 0.0 | 1.6 | 0.00 | 0.00 | 0.00 | 67 | 1016.0 |
| 20260508094037 | 14 | 88 | 1.6 | 4.8 | 0.00 | 0.00 | 0.00 | 67 | 1016.0 |
| 20260508093019 | 14 | 116 | 1.6 | 6.4 | 0.00 | 0.00 | 0.00 | 67 | 1016.0 |
| 20260508092020 | 14 | 244 | 0.0 | 3.2 | 0.00 | 0.00 | 0.00 | 66 | 1016.0 |
| 20260508091020 | 14 | 308 | 0.0 | 4.8 | 0.00 | 0.00 | 0.00 | 65 | 1016.0 |
| 20260508090021 | 15 | 37 | 1.6 | 6.4 | 0.00 | 0.00 | 0.00 | 65 | 1016.0 |
| 20260508085043 | 15 | 197 | 0.0 | 3.2 | 0.00 | 0.00 | 0.00 | 64 | 1016.1 |
| 20260508084044 | 15 | 59 | 0.0 | 3.2 | 0.00 | 0.00 | 0.00 | 65 | 1016.1 |
| 20260508083025 | 14 | 91 | 1.6 | 8.0 | 0.00 | 0.00 | 0.00 | 65 | 1016.2 |
| 20260508082015 | 14 | 100 | 1.6 | 6.4 | 0.00 | 0.00 | 0.00 | 65 | 1016.1 |
| 20260508081016 | 14 | 95 | 1.6 | 6.4 | 0.00 | 0.00 | 0.00 | 65 | 1016.1 |
| 20260508080017 | 14 | 131 | 0.0 | 4.8 | 0.00 | 0.00 | 0.00 | 65 | 1016.2 |
| 20260508075018 | 14 | 104 | 1.6 | 6.4 | 0.00 | 0.00 | 0.00 | 65 | 1016.3 |
| 20260508074020 | 14 | 224 | 0.0 | 3.2 | 0.00 | 0.00 | 0.00 | 65 | 1016.5 |
| 20260508073021 | 14 | 89 | 0.0 | 4.8 | 0.00 | 0.00 | 0.00 | 65 | 1016.5 |
| 20260508072022 | 14 | 105 | 3.2 | 4.8 | 0.00 | 0.00 | 0.00 | 65 | 1016.5 |
| 20260508071024 | 14 | 106 | 1.6 | 4.8 | 0.00 | 0.00 | 0.00 | 65 | 1016.6 |
| 20260508070015 | 14 | 89 | 4.8 | 9.7 | 0.00 | 0.00 | 0.00 | 66 | 1016.4 |
| 20260508065016 | 14 | 98 | 3.2 | 9.7 | 0.00 | 0.00 | 0.00 | 66 | 1016.6 |
| 20260508064017 | 14 | 88 | 3.2 | 6.4 | 0.00 | 0.00 | 0.00 | 66 | 1016.6 |
| 20260508063019 | 15 | 95 | 3.2 | 8.0 | 0.00 | 0.00 | 0.00 | 66 | 1016.6 |
| 20260508062020 | 15 | 93 | 3.2 | 6.4 | 0.00 | 0.00 | 0.00 | 65 | 1016.6 |
| 20260508061041 | 15 | 99 | 3.2 | 9.7 | 0.00 | 0.00 | 0.00 | 65 | 1016.5 |
| 20260508060022 | 15 | 69 | 3.2 | 6.4 | 0.00 | 0.00 | 0.00 | 65 | 1016.7 |
| 20260508055545 | 15 | 100 | 3.2 | 9.7 | 0.00 | 0.00 | 0.00 | 64 | 1016.6 |
| 20260508054516 | 15 | 122 | 3.2 | 9.7 | 0.00 | 0.00 | 0.00 | 64 | 1016.6 |
| 20260508053537 | 15 | 101 | 3.2 | 8.0 | 0.00 | 0.00 | 0.00 | 65 | 1016.4 |